createdAt,value
2023-03-01T00:01:47.876Z,101864.41
2023-03-01T00:04:16.409Z,101864.31
2023-03-01T00:06:46.969Z,101841.00
2023-03-01T00:09:15.147Z,101760.09
2023-03-01T00:11:43.268Z,101837.63
2023-03-01T00:14:12.708Z,101865.34
2023-03-01T00:16:45.255Z,101866.03
2023-03-01T00:19:15.043Z,101872.25
2023-03-01T00:21:42.934Z,101832.19
2023-03-01T00:24:11.804Z,101860.72
2023-03-01T00:26:39.937Z,101868.53
2023-03-01T00:29:08.257Z,101872.94
2023-03-01T00:31:36.949Z,101860.00
2023-03-01T00:34:07.154Z,101796.19
2023-03-01T00:36:36.754Z,101864.81
2023-03-01T00:39:06.296Z,101862.97
2023-03-01T00:41:35.537Z,101856.94
2023-03-01T00:44:03.546Z,101854.06
2023-03-01T00:46:32.587Z,101837.25
2023-03-01T00:49:03.246Z,101856.88
2023-03-01T00:51:33.219Z,101856.94
2023-03-01T00:54:03.721Z,101852.91
2023-03-01T00:56:33.278Z,101854.13
2023-03-01T00:59:01.373Z,101860.94
2023-03-01T01:01:31.562Z,101849.50
2023-03-01T01:04:01.734Z,101861.88
2023-03-01T01:06:32.355Z,101848.97
2023-03-01T01:09:02.190Z,101855.47
2023-03-01T01:11:31.764Z,101666.81
2023-03-01T01:14:00.301Z,101838.03
2023-03-01T01:16:30.337Z,101827.53
2023-03-01T01:18:58.351Z,101836.50
2023-03-01T01:21:27.949Z,101842.34
2023-03-01T01:23:56.167Z,101836.63
2023-03-01T01:26:27.275Z,101841.56
2023-03-01T01:28:55.797Z,101831.09
2023-03-01T01:31:25.203Z,101821.00
2023-03-01T01:33:54.062Z,101836.22
2023-03-01T01:36:22.387Z,101820.03
2023-03-01T01:38:50.578Z,101817.41
2023-03-01T01:41:18.551Z,101828.53
2023-03-01T01:43:49.454Z,101808.88
2023-03-01T01:46:25.806Z,101813.28
2023-03-01T01:48:58.194Z,101782.06
2023-03-01T01:51:29.853Z,101818.53
2023-03-01T01:54:02.988Z,101819.28
2023-03-01T01:56:31.834Z,101817.28
2023-03-01T01:59:01.303Z,101816.16
2023-03-01T02:01:29.369Z,101813.81
2023-03-01T02:03:57.809Z,101802.59
2023-03-01T02:06:31.552Z,101804.75
2023-03-01T02:09:03.015Z,101810.31
2023-03-01T02:11:33.294Z,101758.81
2023-03-01T02:14:02.523Z,101804.59
2023-03-01T02:16:32.234Z,101806.09
2023-03-01T02:19:00.681Z,101803.44
2023-03-01T02:21:43.996Z,101812.41
2023-03-01T02:24:25.904Z,101803.91
2023-03-01T02:26:58.148Z,101787.19
2023-03-01T02:29:29.276Z,101780.13
2023-03-01T02:32:00.284Z,101796.28
2023-03-01T02:34:30.155Z,101802.53
2023-03-01T02:37:01.985Z,101800.09
2023-03-01T02:39:35.058Z,101787.31
2023-03-01T02:42:05.987Z,101797.09
2023-03-01T02:44:35.619Z,101787.09
2023-03-01T02:47:05.498Z,101787.03
2023-03-01T02:49:36.268Z,101780.63
2023-03-01T02:52:18.558Z,101772.78
2023-03-01T02:54:52.161Z,101741.56
2023-03-01T02:57:20.862Z,101767.09
2023-03-01T02:59:53.417Z,101731.22
2023-03-01T03:02:36.766Z,101775.09
2023-03-01T03:05:11.407Z,101764.03
2023-03-01T03:07:41.448Z,101768.56
2023-03-01T03:10:12.216Z,101734.63
2023-03-01T03:12:41.408Z,101763.19
2023-03-01T03:15:13.586Z,101756.31
2023-03-01T03:17:45.281Z,101754.78
2023-03-01T03:20:19.838Z,101706.09
2023-03-01T03:22:49.121Z,101697.72
2023-03-01T03:25:17.221Z,101625.66
2023-03-01T03:27:46.820Z,101729.66
2023-03-01T03:30:19.110Z,101692.34
2023-03-01T03:32:53.204Z,101755.22
2023-03-01T03:35:22.623Z,101740.13
2023-03-01T03:38:07.509Z,101737.88
2023-03-01T03:40:37.751Z,101742.75
2023-03-01T03:43:07.945Z,101752.94
2023-03-01T03:45:37.351Z,101726.25
2023-03-01T03:48:07.656Z,101755.50
2023-03-01T03:50:35.629Z,101713.28
2023-03-01T03:53:05.072Z,101760.50
2023-03-01T03:55:34.882Z,101759.84
2023-03-01T03:58:07.798Z,101728.44
2023-03-01T04:00:39.067Z,101749.47
2023-03-01T04:03:07.673Z,101705.16
2023-03-01T04:05:35.573Z,101748.84
2023-03-01T04:08:03.462Z,101751.34
2023-03-01T04:10:32.989Z,101749.00
2023-03-01T04:13:00.884Z,101753.97
2023-03-01T04:15:29.537Z,101705.38
2023-03-01T04:18:00.032Z,101743.72
2023-03-01T04:20:31.109Z,101742.13
2023-03-01T04:23:01.059Z,101741.91
2023-03-01T04:25:29.105Z,101631.19
2023-03-01T04:27:59.390Z,101697.03
2023-03-01T04:30:27.136Z,101752.03
2023-03-01T04:32:54.961Z,101743.44
2023-03-01T04:35:24.713Z,101610.09
2023-03-01T04:37:52.536Z,101718.66
2023-03-01T04:40:22.242Z,101753.47
2023-03-01T04:42:50.100Z,101751.59
2023-03-01T04:45:18.166Z,101734.34
2023-03-01T04:47:47.641Z,101756.72
2023-03-01T04:50:17.721Z,101744.63
2023-03-01T04:52:46.894Z,101745.75
2023-03-01T04:55:15.524Z,101751.28
2023-03-01T04:57:43.302Z,101753.81
2023-03-01T05:00:22.084Z,101759.66
2023-03-01T05:02:54.284Z,101761.81
2023-03-01T05:05:27.870Z,101749.41
2023-03-01T05:08:01.201Z,101759.81
2023-03-01T05:10:31.078Z,101758.09
2023-03-01T05:12:59.431Z,101735.94
2023-03-01T05:15:28.783Z,101749.50
2023-03-01T05:18:01.151Z,101672.56
2023-03-01T05:20:29.712Z,101744.72
2023-03-01T05:23:00.692Z,101738.53
2023-03-01T05:25:33.999Z,101739.19
2023-03-01T05:28:05.177Z,101735.31
2023-03-01T05:30:33.713Z,101738.81
2023-03-01T05:33:02.062Z,101727.91
2023-03-01T05:35:33.572Z,101697.63
2023-03-01T05:38:02.802Z,101733.38
2023-03-01T05:40:30.625Z,101730.31
2023-03-01T05:42:59.372Z,101651.53
2023-03-01T05:45:28.952Z,101728.16
2023-03-01T05:47:56.785Z,101740.97
2023-03-01T05:50:27.049Z,101740.91
2023-03-01T05:53:01.216Z,101740.91
2023-03-01T05:55:31.942Z,101695.50
2023-03-01T05:58:01.856Z,101608.19
2023-03-01T06:00:31.327Z,101744.94
2023-03-01T06:03:00.585Z,101741.06
2023-03-01T06:05:29.656Z,101583.97
2023-03-01T06:08:01.206Z,101736.34
2023-03-01T06:10:31.157Z,101692.94
2023-03-01T06:12:59.782Z,101719.19
2023-03-01T06:15:27.865Z,101743.16
2023-03-01T06:17:59.696Z,101708.66
2023-03-01T06:20:30.151Z,101748.16
2023-03-01T06:22:58.330Z,101746.88
2023-03-01T06:25:28.268Z,101603.19
2023-03-01T06:27:57.366Z,101746.28
2023-03-01T06:30:27.671Z,101744.66
2023-03-01T06:33:01.767Z,101735.38
2023-03-01T06:35:31.548Z,101746.59
2023-03-01T06:38:01.258Z,101744.84
2023-03-01T06:40:29.908Z,101742.66
2023-03-01T06:43:01.859Z,101643.25
2023-03-01T06:45:29.774Z,101729.59
2023-03-01T06:48:05.213Z,101752.41
2023-03-01T06:50:33.199Z,101707.50
2023-03-01T06:53:01.317Z,101743.03
2023-03-01T06:55:29.117Z,101743.38
2023-03-01T06:57:58.051Z,101600.22
2023-03-01T07:00:28.992Z,101741.53
2023-03-01T07:03:00.115Z,101709.19
2023-03-01T07:05:28.533Z,101743.00
2023-03-01T07:07:57.216Z,101736.22
2023-03-01T07:10:25.236Z,101698.59
2023-03-01T07:12:56.659Z,101673.03
2023-03-01T07:15:24.531Z,101720.91
2023-03-01T07:17:53.930Z,101639.22
2023-03-01T07:20:25.399Z,101724.50
2023-03-01T07:22:53.497Z,101726.75
2023-03-01T07:25:21.277Z,101614.28
2023-03-01T07:27:52.186Z,101671.81
2023-03-01T07:30:20.760Z,101618.88
2023-03-01T07:32:49.027Z,101707.91
2023-03-01T07:35:18.359Z,101712.53
2023-03-01T07:37:46.181Z,101710.53
2023-03-01T07:40:15.107Z,101704.78
2023-03-01T07:42:42.948Z,101640.22
2023-03-01T07:45:11.961Z,101671.41
2023-03-01T07:47:39.710Z,101631.47
2023-03-01T07:50:08.296Z,101698.75
2023-03-01T07:52:37.617Z,101707.34
2023-03-01T07:55:06.009Z,101704.69
2023-03-01T07:57:33.775Z,101709.84
2023-03-01T08:00:01.686Z,101699.00
2023-03-01T08:02:41.380Z,101703.31
2023-03-01T08:05:09.931Z,101709.22
2023-03-01T08:07:39.160Z,101704.13
2023-03-01T08:10:08.091Z,101662.63
2023-03-01T08:12:35.914Z,101686.28
2023-03-01T08:15:03.721Z,101612.41
2023-03-01T08:17:31.474Z,101682.38
2023-03-01T08:19:59.296Z,101682.09
2023-03-01T08:22:28.585Z,101682.69
2023-03-01T08:24:58.849Z,101676.59
2023-03-01T08:27:26.692Z,101682.09
2023-03-01T08:29:54.503Z,101684.78
2023-03-01T08:32:22.538Z,101560.19
2023-03-01T08:34:50.640Z,101657.53
2023-03-01T08:37:18.397Z,101674.75
2023-03-01T08:39:46.562Z,101681.75
2023-03-01T08:42:15.682Z,101673.16
2023-03-01T08:44:45.477Z,101676.75
2023-03-01T08:47:13.878Z,101549.00
2023-03-01T08:49:41.800Z,101660.09
2023-03-01T08:52:09.568Z,101672.91
2023-03-01T08:54:37.609Z,101668.94
2023-03-01T08:57:05.560Z,101556.59
2023-03-01T08:59:38.205Z,101675.44
2023-03-01T09:02:06.751Z,101628.88
2023-03-01T09:04:34.859Z,101637.97
2023-03-01T09:07:02.852Z,101670.47
2023-03-01T09:09:30.620Z,101651.50
2023-03-01T09:11:58.438Z,101668.84
2023-03-01T09:14:26.284Z,101668.94
2023-03-01T09:16:55.562Z,101641.50
2023-03-01T09:19:25.725Z,101611.38
2023-03-01T09:21:55.005Z,101657.00
2023-03-01T09:24:25.499Z,101660.78
2023-03-01T09:26:56.586Z,101657.47
2023-03-01T09:29:25.132Z,101649.50
2023-03-01T09:31:55.949Z,101649.59
2023-03-01T09:34:25.312Z,101604.25
2023-03-01T09:36:53.113Z,101655.66
2023-03-01T09:39:21.501Z,101640.25
2023-03-01T09:41:56.140Z,101638.84
2023-03-01T09:44:32.243Z,101632.59
2023-03-01T09:47:01.200Z,101619.59
2023-03-01T09:49:32.575Z,101634.91
2023-03-01T09:52:05.777Z,101642.84
2023-03-01T09:54:33.777Z,101640.16
2023-03-01T09:57:21.327Z,101638.25
2023-03-01T10:00:05.538Z,101634.59
2023-03-01T10:02:41.192Z,101513.13
2023-03-01T10:05:27.226Z,101628.09
2023-03-01T10:08:04.546Z,101633.50
2023-03-01T10:10:36.660Z,101630.09
2023-03-01T10:13:12.824Z,101588.31
2023-03-01T10:15:46.074Z,101600.19
2023-03-01T10:18:18.702Z,101601.03
2023-03-01T10:20:54.354Z,101584.13
2023-03-01T10:23:22.191Z,101620.25
2023-03-01T10:26:05.372Z,101623.84
2023-03-01T10:28:44.552Z,101619.44
2023-03-01T10:31:16.075Z,101614.09
2023-03-01T10:33:44.120Z,101619.47
2023-03-01T10:36:13.404Z,101609.94
2023-03-01T10:38:53.290Z,101611.75
2023-03-01T10:41:21.511Z,101586.94
2023-03-01T10:43:52.550Z,101617.13
2023-03-01T10:46:29.049Z,101612.47
2023-03-01T10:49:16.061Z,101614.66
2023-03-01T10:51:47.707Z,101604.06
2023-03-01T10:54:20.798Z,101614.00
2023-03-01T10:56:51.674Z,101468.06
2023-03-01T10:59:29.257Z,101611.13
2023-03-01T11:02:23.579Z,101609.47
2023-03-01T11:05:01.187Z,101619.25
2023-03-01T11:07:31.131Z,101607.84
2023-03-01T11:09:59.082Z,101605.91
2023-03-01T11:12:29.829Z,101604.38
2023-03-01T11:14:57.961Z,101598.13
2023-03-01T11:17:30.011Z,101568.97
2023-03-01T11:20:18.230Z,101551.19
2023-03-01T11:22:51.876Z,101587.38
2023-03-01T11:25:25.369Z,101552.16
2023-03-01T11:27:55.484Z,101584.03
2023-03-01T11:30:28.078Z,101582.44
2023-03-01T11:33:07.671Z,101567.38
2023-03-01T11:35:39.450Z,101577.00
2023-03-01T11:38:20.589Z,101546.03
2023-03-01T11:40:56.048Z,101573.34
2023-03-01T11:43:31.604Z,101574.53
2023-03-01T11:46:24.352Z,101567.41
2023-03-01T11:49:00.873Z,101578.09
2023-03-01T11:51:43.323Z,101559.59
2023-03-01T11:54:40.488Z,101565.00
2023-03-01T11:57:16.814Z,101556.97
2023-03-01T12:00:02.027Z,101537.53
2023-03-01T12:02:49.309Z,101480.63
2023-03-01T12:06:04.400Z,101538.44
2023-03-01T12:08:37.962Z,101522.41
2023-03-01T12:11:22.302Z,101530.53
2023-03-01T12:14:22.816Z,101539.47
2023-03-01T12:17:08.294Z,101489.00
2023-03-01T12:19:48.563Z,101525.19
2023-03-01T12:22:31.189Z,101542.88
2023-03-01T12:25:27.793Z,101535.06
2023-03-01T12:28:34.313Z,101522.59
2023-03-01T12:31:32.749Z,101519.19
2023-03-01T12:34:10.405Z,101506.81
2023-03-01T12:36:52.334Z,101491.66
2023-03-01T12:39:37.081Z,101357.63
2023-03-01T12:42:12.800Z,101507.66
2023-03-01T12:44:56.493Z,101504.13
2023-03-01T12:47:40.450Z,101494.38
2023-03-01T12:50:19.182Z,101491.75
2023-03-01T12:52:51.612Z,101459.03
2023-03-01T12:55:31.030Z,101483.84
2023-03-01T12:58:12.171Z,101481.31
2023-03-01T13:00:47.541Z,101476.78
2023-03-01T13:03:27.753Z,101476.81
2023-03-01T13:06:10.672Z,101454.50
2023-03-01T13:08:44.616Z,101466.19
2023-03-01T13:11:19.842Z,101467.16
2023-03-01T13:13:49.808Z,101459.06
2023-03-01T13:16:43.893Z,101458.19
2023-03-01T13:19:19.452Z,101451.25
2023-03-01T13:21:51.045Z,101428.19
2023-03-01T13:24:31.455Z,101452.19
2023-03-01T13:27:13.588Z,101436.16
2023-03-01T13:29:49.535Z,101437.06
2023-03-01T13:32:28.845Z,101445.91
2023-03-01T13:35:04.524Z,101430.06
2023-03-01T13:37:37.249Z,101438.88
2023-03-01T13:40:38.451Z,101421.06
2023-03-01T13:43:31.362Z,101434.44
2023-03-01T13:46:00.424Z,101186.31
2023-03-01T13:48:31.450Z,101395.47
2023-03-01T13:51:02.781Z,101396.34
2023-03-01T13:53:37.631Z,101432.69
2023-03-01T13:56:11.450Z,101377.72
2023-03-01T13:58:51.828Z,101402.59
2023-03-01T14:01:24.240Z,101419.44
2023-03-01T14:03:52.287Z,101415.97
2023-03-01T14:06:23.798Z,101414.97
2023-03-01T14:09:02.257Z,101375.09
2023-03-01T14:11:59.564Z,101407.09
2023-03-01T14:14:40.680Z,101400.88
2023-03-01T14:17:25.012Z,101177.59
2023-03-01T14:20:00.594Z,101396.47
2023-03-01T14:22:30.393Z,101406.22
2023-03-01T14:25:01.894Z,101400.03
2023-03-01T14:27:35.458Z,101404.34
2023-03-01T14:30:05.762Z,101402.63
2023-03-01T14:32:33.944Z,101397.34
2023-03-01T14:35:02.428Z,101395.59
2023-03-01T14:37:32.239Z,101306.09
2023-03-01T14:40:03.846Z,101392.94
2023-03-01T14:42:36.828Z,101383.19
2023-03-01T14:45:09.491Z,101240.50
2023-03-01T14:47:40.866Z,101402.69
2023-03-01T14:50:23.415Z,101400.88
2023-03-01T14:52:54.051Z,101367.25
2023-03-01T14:55:28.935Z,101392.03
2023-03-01T14:57:57.576Z,101390.28
2023-03-01T15:00:28.621Z,101380.56
2023-03-01T15:02:58.430Z,101376.13
2023-03-01T15:05:31.042Z,101363.72
2023-03-01T15:07:59.943Z,101368.13
2023-03-01T15:10:31.274Z,101347.75
2023-03-01T15:13:12.937Z,101362.84
2023-03-01T15:15:44.833Z,101293.75
2023-03-01T15:18:21.571Z,101361.94
2023-03-01T15:20:50.873Z,101346.03
2023-03-01T15:23:25.212Z,101307.03
2023-03-01T15:25:58.451Z,101342.44
2023-03-01T15:28:29.460Z,101346.00
2023-03-01T15:31:00.914Z,101348.69
2023-03-01T15:33:34.000Z,101331.84
2023-03-01T15:36:03.997Z,101332.72
2023-03-01T15:38:35.490Z,101312.38
2023-03-01T15:41:07.245Z,101293.72
2023-03-01T15:43:44.779Z,101314.13
2023-03-01T15:46:33.440Z,101315.84
2023-03-01T15:49:04.318Z,101332.69
2023-03-01T15:51:35.718Z,101335.34
2023-03-01T15:54:07.378Z,101338.91
2023-03-01T15:56:36.854Z,101330.03
2023-03-01T15:59:05.688Z,101313.22
2023-03-01T16:01:35.198Z,101305.25
2023-03-01T16:04:03.293Z,101322.94
2023-03-01T16:06:31.462Z,101308.78
2023-03-01T16:08:59.528Z,101319.41
2023-03-01T16:11:27.667Z,101305.22
2023-03-01T16:13:57.425Z,101322.03
2023-03-01T16:16:26.021Z,101324.69
2023-03-01T16:18:55.643Z,101296.34
2023-03-01T16:21:25.725Z,101321.13
2023-03-01T16:23:54.695Z,101323.78
2023-03-01T16:26:22.807Z,101327.34
2023-03-01T16:28:50.725Z,101269.72
2023-03-01T16:31:21.872Z,101325.56
2023-03-01T16:33:52.565Z,101333.47
2023-03-01T16:36:24.473Z,101291.81
2023-03-01T16:38:53.089Z,101306.88
2023-03-01T16:41:24.208Z,101323.66
2023-03-01T16:43:52.605Z,101268.72
2023-03-01T16:46:24.494Z,101319.22
2023-03-01T16:48:53.830Z,101297.88
2023-03-01T16:51:23.035Z,101314.75
2023-03-01T16:53:52.057Z,101329.78
2023-03-01T16:56:20.914Z,101323.56
2023-03-01T16:58:49.073Z,101306.69
2023-03-01T17:01:18.528Z,101329.72
2023-03-01T17:03:49.649Z,101313.81
2023-03-01T17:06:21.234Z,101335.94
2023-03-01T17:08:49.127Z,101312.03
2023-03-01T17:11:19.551Z,101337.66
2023-03-01T17:13:48.683Z,101342.00
2023-03-01T17:16:18.680Z,101336.63
2023-03-01T17:18:48.990Z,101331.22
2023-03-01T17:21:17.414Z,101317.09
2023-03-01T17:23:46.828Z,101317.13
2023-03-01T17:26:15.051Z,101297.53
2023-03-01T17:28:43.820Z,101303.72
2023-03-01T17:31:11.750Z,101336.44
2023-03-01T17:33:40.653Z,101335.53
2023-03-01T17:36:10.033Z,101337.28
2023-03-01T17:38:38.361Z,101350.50
2023-03-01T17:41:06.473Z,101302.56
2023-03-01T17:43:35.523Z,101348.72
2023-03-01T17:46:03.706Z,101345.91
2023-03-01T17:48:31.826Z,101364.44
2023-03-01T17:50:59.678Z,101358.91
2023-03-01T17:53:30.015Z,101353.31
2023-03-01T17:56:03.038Z,101363.78
2023-03-01T17:58:31.471Z,101374.22
2023-03-01T18:01:09.134Z,101366.19
2023-03-01T18:03:37.317Z,101319.88
2023-03-01T18:06:12.217Z,101238.03
2023-03-01T18:08:41.603Z,101292.09
2023-03-01T18:11:09.816Z,101347.69
2023-03-01T18:13:38.309Z,101363.47
2023-03-01T18:16:07.685Z,101363.41
2023-03-01T18:18:36.063Z,101371.06
2023-03-01T18:21:05.324Z,101138.41
2023-03-01T18:23:34.799Z,101365.59
2023-03-01T18:26:06.732Z,101134.53
2023-03-01T18:28:35.171Z,101249.06
2023-03-01T18:31:05.943Z,101296.88
2023-03-01T18:33:33.932Z,101367.91
2023-03-01T18:36:01.942Z,101375.88
2023-03-01T18:38:30.975Z,101371.41
2023-03-01T18:40:58.830Z,101359.72
2023-03-01T18:43:29.242Z,101361.47
2023-03-01T18:45:58.546Z,101365.88
2023-03-01T18:48:27.235Z,101342.88
2023-03-01T18:50:55.227Z,101316.41
2023-03-01T18:53:23.120Z,101360.56
2023-03-01T18:55:51.130Z,101362.44
2023-03-01T18:58:18.998Z,101355.19
2023-03-01T19:00:48.555Z,101356.91
2023-03-01T19:03:16.376Z,101351.41
2023-03-01T19:05:44.340Z,101325.25
2023-03-01T19:08:12.293Z,101288.41
2023-03-01T19:10:40.182Z,101341.59
2023-03-01T19:13:08.142Z,101234.00
2023-03-01T19:15:36.164Z,101359.22
2023-03-01T19:18:06.078Z,101359.31
2023-03-01T19:20:34.049Z,101342.41
2023-03-01T19:23:01.827Z,101354.22
2023-03-01T19:25:29.728Z,101341.47
2023-03-01T19:27:57.658Z,101351.06
2023-03-01T19:30:27.186Z,101351.91
2023-03-01T19:32:55.692Z,101364.03
2023-03-01T19:35:24.971Z,101339.22
2023-03-01T19:37:52.949Z,101338.25
2023-03-01T19:40:20.859Z,101357.63
2023-03-01T19:42:48.766Z,101359.78
2023-03-01T19:45:22.410Z,101364.06
2023-03-01T19:47:53.292Z,101364.72
2023-03-01T19:50:21.169Z,101360.28
2023-03-01T19:52:50.630Z,101351.91
2023-03-01T19:55:19.158Z,101365.38
2023-03-01T19:57:47.157Z,101365.16
2023-03-01T20:00:16.825Z,101364.25
2023-03-01T20:02:44.983Z,101367.69
2023-03-01T20:05:13.069Z,101342.81
2023-03-01T20:07:40.929Z,101365.97
2023-03-01T20:10:11.890Z,101306.34
2023-03-01T20:12:39.699Z,101331.47
2023-03-01T20:15:08.726Z,101364.69
2023-03-01T20:17:36.616Z,101341.41
2023-03-01T20:20:04.801Z,101367.91
2023-03-01T20:22:32.647Z,101369.91
2023-03-01T20:25:00.669Z,101361.69
2023-03-01T20:27:29.900Z,101361.41
2023-03-01T20:29:57.804Z,101361.09
2023-03-01T20:32:25.808Z,101358.16
2023-03-01T20:34:55.796Z,101272.59
2023-03-01T20:37:23.800Z,101360.00
2023-03-01T20:39:52.027Z,101337.78
2023-03-01T20:42:19.852Z,101353.88
2023-03-01T20:44:49.319Z,101357.22
2023-03-01T20:47:20.325Z,101349.72
2023-03-01T20:49:48.284Z,101330.03
2023-03-01T20:52:16.117Z,101304.03
2023-03-01T20:54:43.972Z,101371.72
2023-03-01T20:57:12.148Z,101369.78
2023-03-01T20:59:39.995Z,101364.66
2023-03-01T21:02:11.300Z,101374.34
2023-03-01T21:04:39.425Z,101370.78
2023-03-01T21:07:07.281Z,101373.31
2023-03-01T21:09:35.250Z,101367.03
2023-03-01T21:12:04.401Z,101365.31
2023-03-01T21:14:42.180Z,101351.66
2023-03-01T21:17:13.994Z,101327.53
2023-03-01T21:19:43.904Z,101350.47
2023-03-01T21:22:12.484Z,101348.72
2023-03-01T21:24:40.346Z,101354.34
2023-03-01T21:27:08.569Z,101349.69
2023-03-01T21:29:38.423Z,101355.97
2023-03-01T21:32:07.465Z,101346.13
2023-03-01T21:34:37.754Z,101330.16
2023-03-01T21:37:05.955Z,101342.63
2023-03-01T21:39:34.400Z,101336.41
2023-03-01T21:42:04.260Z,101324.78
2023-03-01T21:44:33.409Z,101344.53
2023-03-01T21:47:01.563Z,101336.63
2023-03-01T21:49:29.636Z,101176.00
2023-03-01T21:51:58.956Z,101302.13
2023-03-01T21:54:27.138Z,101329.03
2023-03-01T21:56:55.282Z,101283.34
2023-03-01T21:59:25.068Z,101330.66
2023-03-01T22:01:53.594Z,101333.63
2023-03-01T22:04:24.526Z,101317.91
2023-03-01T22:06:54.486Z,101327.34
2023-03-01T22:09:25.045Z,101326.66
2023-03-01T22:11:58.415Z,101328.06
2023-03-01T22:14:27.462Z,101324.22
2023-03-01T22:16:55.878Z,101326.84
2023-03-01T22:19:23.864Z,101328.53
2023-03-01T22:21:53.322Z,101292.34
2023-03-01T22:24:25.165Z,101328.84
2023-03-01T22:26:54.405Z,101329.84
2023-03-01T22:29:24.614Z,101326.47
2023-03-01T22:31:52.679Z,101328.06
2023-03-01T22:34:21.284Z,101261.97
2023-03-01T22:36:49.627Z,101261.78
2023-03-01T22:39:20.636Z,101317.91
2023-03-01T22:41:51.083Z,101318.91
2023-03-01T22:44:21.635Z,101316.44
2023-03-01T22:46:49.926Z,101266.34
2023-03-01T22:49:19.175Z,101294.81
2023-03-01T22:51:48.186Z,101312.94
2023-03-01T22:54:17.682Z,101319.25
2023-03-01T22:56:46.846Z,101280.09
2023-03-01T22:59:19.182Z,101248.09
2023-03-01T23:01:48.290Z,101273.09
2023-03-01T23:04:16.365Z,101306.63
2023-03-01T23:06:51.747Z,101240.59
2023-03-01T23:09:21.778Z,101287.09
2023-03-01T23:11:50.583Z,101295.59
2023-03-01T23:14:21.147Z,101299.09
2023-03-01T23:16:50.071Z,101295.47
2023-03-01T23:19:18.353Z,101296.06
2023-03-01T23:21:50.581Z,101303.84
2023-03-01T23:24:20.441Z,101287.72
2023-03-01T23:26:53.204Z,101306.97
2023-03-01T23:29:23.003Z,101296.25
2023-03-01T23:31:50.904Z,101258.22
2023-03-01T23:34:19.241Z,101306.88
2023-03-01T23:36:47.111Z,101308.75
2023-03-01T23:39:15.618Z,101242.63
2023-03-01T23:41:43.566Z,101318.94
2023-03-01T23:44:16.122Z,101305.25
2023-03-01T23:46:46.850Z,101303.88
2023-03-01T23:49:16.674Z,101138.28
2023-03-01T23:51:47.747Z,101292.28
2023-03-01T23:54:18.203Z,101303.09
2023-03-01T23:56:47.173Z,101296.25
2023-03-01T23:59:16.731Z,101298.03
